Time;durP1;ratioP1;P1;durP2;ratioP2;P2;SDS_P1;SDS_P2;PMS_P1;PMS_P2;Temp;Humidity;BMP_temperature;BMP_pressure;BME280_temperature;BME280_humidity;BME280_pressure;Samples;Min_cycle;Max_cycle;Signal;HPM_P1;HPM_P2
2022/02/15 00:00:53;;;;;;;;;8.00;6.00;;;;;21.42;42.95;100271.38;5043727;28;45375;-73
2022/02/15 00:03:18;;;;;;;;;7.00;6.25;;;;;21.43;43.56;100277.56;5043811;28;45392;-72
2022/02/15 00:05:43;;;;;;;;;8.00;6.25;;;;;21.41;43.06;100282.94;5060627;28;45382;-73
2022/02/15 00:08:09;;;;;;;;;10.00;9.25;;;;;21.39;43.49;100276.84;5026721;28;48079;-73
2022/02/15 00:10:34;;;;;;;;;5.25;5.25;;;;;21.37;43.02;100284.00;5043413;28;45331;-73
2022/02/15 00:13:03;;;;;;;;;10.75;8.25;;;;;21.35;43.36;100280.53;5060301;28;45310;-73
2022/02/15 00:15:28;;;;;;;;;7.75;7.50;;;;;21.34;42.80;100272.63;5060175;28;45533;-73
2022/02/15 00:17:54;;;;;;;;;7.00;5.75;;;;;21.34;43.12;100277.94;5043299;28;47030;-73
2022/02/15 00:20:19;;;;;;;;;5.25;5.00;;;;;21.33;43.29;100282.41;5060103;28;50084;-73
2022/02/15 00:22:44;;;;;;;;;9.50;8.00;;;;;21.34;43.46;100288.56;5027003;28;45893;-73
2022/02/15 00:25:10;;;;;;;;;7.75;6.00;;;;;21.32;43.07;100280.66;5026189;28;59960;-73
2022/02/15 00:27:35;;;;;;;;;8.25;6.25;;;;;21.31;43.30;100284.25;5025866;28;71391;-73
2022/02/15 00:30:01;;;;;;;;;6.25;6.25;;;;;21.30;43.39;100287.84;5059525;28;55376;-73
2022/02/15 00:32:26;;;;;;;;;6.25;5.00;;;;;21.29;43.65;100283.47;5043415;28;45386;-73
2022/02/15 00:34:51;;;;;;;;;7.00;7.00;;;;;21.29;43.51;100290.56;5059931;28;50928;-73
2022/02/15 00:37:17;;;;;;;;;8.25;6.75;;;;;21.28;43.49;100299.44;5059754;28;47156;-73
2022/02/15 00:39:42;;;;;;;;;9.50;8.75;;;;;21.25;43.68;100305.72;5026445;28;45427;-73
2022/02/15 00:42:08;;;;;;;;;7.50;6.50;;;;;21.25;43.43;100308.34;5042810;28;52381;-73
2022/02/15 00:44:34;;;;;;;;;7.50;7.50;;;;;21.24;43.85;100309.28;5042906;28;45788;-73
2022/02/15 00:47:00;;;;;;;;;10.25;8.00;;;;;21.23;43.49;100304.06;5043314;28;47177;-73
2022/02/15 00:49:25;;;;;;;;;8.25;6.00;;;;;21.23;43.66;100310.22;5042848;28;46001;-73
2022/02/15 00:51:50;;;;;;;;;8.75;7.25;;;;;21.21;44.12;100319.19;5043031;28;45267;-73
2022/02/15 00:54:16;;;;;;;;;10.00;9.00;;;;;21.20;43.91;100313.00;5025538;28;65954;-73
2022/02/15 00:56:42;;;;;;;;;6.25;6.00;;;;;21.20;43.48;100322.75;5042749;28;47017;-73
2022/02/15 00:59:09;;;;;;;;;9.75;8.75;;;;;21.17;44.06;100318.44;5042873;28;45198;-73
2022/02/15 01:01:35;;;;;;;;;6.25;6.00;;;;;21.17;44.16;100318.44;5059850;28;45275;-74
2022/02/15 01:04:00;;;;;;;;;7.00;5.75;;;;;21.18;44.44;100325.47;5042919;28;45391;-73
2022/02/15 01:06:26;;;;;;;;;9.50;8.00;;;;;21.16;44.58;100332.63;5058081;28;54797;-73
2022/02/15 01:08:51;;;;;;;;;8.25;7.25;;;;;21.15;44.33;100331.78;5042328;28;58958;-73
2022/02/15 01:11:16;;;;;;;;;7.75;6.75;;;;;21.14;44.41;100334.50;5042605;28;45280;-73
2022/02/15 01:13:42;;;;;;;;;8.50;5.50;;;;;21.13;45.07;100332.75;5042522;28;45299;-73
2022/02/15 01:16:09;;;;;;;;;7.00;7.00;;;;;21.13;45.26;100336.28;5042320;28;45516;-73
2022/02/15 01:18:34;;;;;;;;;8.00;6.25;;;;;21.13;45.05;100341.59;5059489;28;45402;-73
2022/02/15 01:21:00;;;;;;;;;7.50;7.50;;;;;21.12;44.73;100342.50;5042790;28;45264;-73
2022/02/15 01:23:25;;;;;;;;;7.50;7.50;;;;;21.10;45.02;100347.00;5059553;28;45390;-73
2022/02/15 01:25:51;;;;;;;;;6.00;6.00;;;;;21.10;44.71;100343.47;5024673;28;72639;-73
2022/02/15 01:28:16;;;;;;;;;5.25;5.25;;;;;21.07;44.97;100348.94;5042689;28;45263;-73
2022/02/15 01:30:42;;;;;;;;;7.00;6.50;;;;;21.06;44.92;100353.38;5042403;28;45301;-73
2022/02/15 01:33:07;;;;;;;;;8.25;5.25;;;;;21.04;44.95;100349.06;5059362;28;45171;-73
2022/02/15 01:35:32;;;;;;;;;7.00;6.25;;;;;21.03;45.20;100350.00;5058303;28;62650;-73
2022/02/15 01:37:58;;;;;;;;;5.75;5.75;;;;;21.01;44.58;100354.47;5093323;27;45187;-73
2022/02/15 01:40:23;;;;;;;;;11.00;8.50;;;;;21.01;45.16;100357.13;5041637;28;57051;-73
2022/02/15 01:42:49;;;;;;;;;5.25;5.25;;;;;21.00;44.94;100366.00;5042362;28;45370;-73
2022/02/15 01:45:17;;;;;;;;;5.00;5.00;;;;;20.99;45.01;100367.81;5042033;28;46030;-73
2022/02/15 01:47:43;;;;;;;;;6.00;6.00;;;;;21.01;44.61;100373.03;5042683;28;45359;-73
2022/02/15 01:50:09;;;;;;;;;8.25;6.25;;;;;21.00;44.85;100373.97;5042074;28;45455;-73
2022/02/15 01:52:34;;;;;;;;;7.50;7.00;;;;;20.99;45.07;100373.09;5042195;28;45540;-72
2022/02/15 01:55:01;;;;;;;;;5.25;4.25;;;;;20.99;44.92;100374.91;5041889;28;46505;-73
2022/02/15 01:57:26;;;;;;;;;6.75;5.25;;;;;21.00;44.59;100373.97;5058848;28;45256;-73
2022/02/15 01:59:54;;;;;;;;;8.50;5.50;;;;;20.99;44.85;100385.50;5025284;28;45245;-73
2022/02/15 02:02:21;;;;;;;;;6.00;5.25;;;;;21.01;44.57;100388.97;5042414;28;45351;-72
2022/02/15 02:07:30;;;;;;;;;10.00;7.75;;;;;21.00;44.78;100397.84;5044871;28;45365;-73
2022/02/15 02:09:55;;;;;;;;;4.75;4.75;;;;;21.00;44.74;100397.84;5041558;28;50370;-72
2022/02/15 02:12:21;;;;;;;;;5.75;5.50;;;;;20.98;44.58;100397.06;5041738;28;52940;-73
2022/02/15 02:15:00;;;;;;;;;5.00;5.00;;;;;20.96;44.86;100394.47;5058343;28;45817;-72
2022/02/15 02:17:26;;;;;;;;;7.00;4.75;;;;;20.95;44.54;100403.34;5041814;28;45222;-73
2022/02/15 02:19:53;;;;;;;;;6.75;6.00;;;;;20.96;44.93;100409.53;5045344;28;45280;-73
2022/02/15 02:22:20;;;;;;;;;5.75;5.00;;;;;20.95;45.03;100402.50;5025189;28;45373;-72
2022/02/15 02:24:46;;;;;;;;;7.00;6.25;;;;;20.94;44.89;100416.66;5025138;28;48114;-73
2022/02/15 02:27:15;;;;;;;;;5.00;5.00;;;;;20.93;45.64;100406.97;5041508;28;45853;-72
2022/02/15 02:29:41;;;;;;;;;6.25;6.00;;;;;20.92;45.77;100414.06;5058517;28;45482;-73
2022/02/15 02:32:07;;;;;;;;;6.00;6.00;;;;;20.94;45.58;100421.94;5041798;28;45668;-72
2022/02/15 02:34:33;;;;;;;;;5.50;5.00;;;;;20.94;45.55;100421.94;5041461;28;45762;-72
2022/02/15 02:36:59;;;;;;;;;6.25;6.00;;;;;20.94;45.20;100417.53;5058095;28;45293;-73
2022/02/15 02:39:24;;;;;;;;;7.50;6.00;;;;;20.91;45.38;100419.44;5041551;28;45243;-72
2022/02/15 02:41:50;;;;;;;;;6.25;6.25;;;;;20.89;45.42;100422.16;5024821;28;45278;-73
2022/02/15 02:44:15;;;;;;;;;7.00;5.50;;;;;20.86;45.32;100423.13;5058056;28;46880;-72
2022/02/15 02:46:41;;;;;;;;;5.75;4.25;;;;;20.88;45.40;100423.94;5059332;28;46089;-72
2022/02/15 02:49:06;;;;;;;;;6.75;5.75;;;;;20.87;45.34;100426.66;5041259;28;45504;-72
2022/02/15 02:51:32;;;;;;;;;6.00;6.00;;;;;20.87;45.11;100438.13;5041382;28;45445;-72
2022/02/15 02:53:57;;;;;;;;;5.75;5.75;;;;;20.83;45.39;100425.88;5041153;28;47152;-72
2022/02/15 02:56:23;;;;;;;;;5.00;4.50;;;;;20.81;45.65;100438.34;5024150;28;53815;-72
2022/02/15 02:58:48;;;;;;;;;5.75;5.75;;;;;20.79;45.42;100436.69;5024627;28;45978;-72
2022/02/15 03:01:13;;;;;;;;;5.00;4.00;;;;;20.77;45.52;100436.75;5041351;28;45345;-72
2022/02/15 03:03:39;;;;;;;;;7.00;4.00;;;;;20.78;45.43;100440.28;5041281;28;47102;-72
2022/02/15 03:06:07;;;;;;;;;5.00;5.00;;;;;20.77;45.32;100450.00;5058105;28;45461;-72
2022/02/15 03:08:33;;;;;;;;;6.50;6.50;;;;;20.78;45.26;100454.38;5041713;28;45521;-72
2022/02/15 03:10:59;;;;;;;;;5.50;4.00;;;;;20.78;45.66;100451.75;5041195;28;45514;-72
2022/02/15 03:13:25;;;;;;;;;5.75;4.25;;;;;20.79;45.28;100452.59;5041121;28;45355;-72
2022/02/15 03:15:50;;;;;;;;;6.75;5.75;;;;;20.77;46.12;100452.66;5057736;28;45517;-72
2022/02/15 03:18:16;;;;;;;;;5.25;5.25;;;;;20.78;45.21;100472.97;5040859;28;46425;-72
2022/02/15 03:20:41;;;;;;;;;5.75;5.00;;;;;20.80;44.89;100467.59;5040471;28;59731;-72
2022/02/15 03:23:07;;;;;;;;;4.50;4.50;;;;;20.80;45.42;100467.59;5040957;28;46384;-72
2022/02/15 03:25:32;;;;;;;;;4.00;1.75;;;;;20.78;44.91;100469.44;5057152;28;55364;-72
2022/02/15 03:27:57;;;;;;;;;6.00;4.75;;;;;20.80;44.79;100472.91;5041094;28;45445;-72
2022/02/15 03:30:23;;;;;;;;;4.25;3.25;;;;;20.80;45.22;100488.81;5042193;28;50644;-72
2022/02/15 03:32:48;;;;;;;;;3.25;2.75;;;;;20.78;44.71;100488.88;5044215;28;49884;-72
2022/02/15 03:35:14;;;;;;;;;6.00;6.00;;;;;20.77;45.66;100502.19;5060813;28;54150;-72
2022/02/15 03:37:39;;;;;;;;;3.75;3.25;;;;;20.76;45.09;100501.34;5044337;28;45386;-72
2022/02/15 03:40:06;;;;;;;;;3.25;3.25;;;;;20.76;45.83;100498.69;5044523;28;45509;-72
2022/02/15 03:45:16;;;;;;;;;6.25;5.00;;;;;20.75;45.19;100501.34;5046922;28;45260;-72
2022/02/15 03:47:41;;;;;;;;;3.75;3.25;;;;;20.73;45.60;100503.22;5061252;28;45362;-72
2022/02/15 03:50:07;;;;;;;;;4.00;3.00;;;;;20.72;45.23;100515.59;5044151;28;45491;-72
2022/02/15 03:52:33;;;;;;;;;5.25;4.50;;;;;20.71;45.46;100524.50;5027465;28;45365;-72
2022/02/15 03:54:58;;;;;;;;;8.50;3.75;;;;;20.72;45.81;100533.31;5027570;28;45240;-72
2022/02/15 03:57:24;;;;;;;;;6.25;3.50;;;;;20.72;45.70;100533.31;5044208;28;45264;-72
2022/02/15 03:59:50;;;;;;;;;3.00;3.00;;;;;20.69;45.65;100536.94;5043895;28;45500;-71
2022/02/15 04:02:16;;;;;;;;;4.75;4.75;;;;;20.70;45.54;100536.03;5027351;28;46315;-71
2022/02/15 04:04:41;;;;;;;;;4.00;4.00;;;;;20.68;45.65;100540.53;5027182;28;45450;-71
2022/02/15 04:07:07;;;;;;;;;5.00;4.50;;;;;20.68;45.29;100559.09;5044169;28;45356;-72
2022/02/15 04:09:32;;;;;;;;;4.00;4.00;;;;;20.68;45.73;100563.53;5060182;28;55751;-72
2022/02/15 04:11:57;;;;;;;;;3.50;3.25;;;;;20.67;45.40;100564.41;5044027;28;45315;-71
2022/02/15 04:14:23;;;;;;;;;6.50;4.75;;;;;20.68;47.25;100564.38;5060287;28;45532;-73
2022/02/15 04:16:48;;;;;;;;;4.25;4.25;;;;;20.76;47.43;100566.75;5060706;28;45247;-73
2022/02/15 04:19:14;;;;;;;;;4.50;4.50;;;;;20.85;47.38;100572.63;5060376;28;45485;-72
2022/02/15 04:21:39;;;;;;;;;7.75;5.25;;;;;20.95;48.12;100578.44;5060503;28;45428;-73
2022/02/15 04:24:05;;;;;;;;;4.00;4.00;;;;;21.03;48.38;100578.19;5060452;28;45509;-73
2022/02/15 04:26:30;;;;;;;;;5.00;5.00;;;;;21.11;48.16;100584.03;5043812;28;45367;-72
2022/02/15 04:28:55;;;;;;;;;5.00;4.25;;;;;21.17;48.13;100589.13;5043208;28;49060;-73
2022/02/15 04:31:21;;;;;;;;;7.00;5.25;;;;;21.23;48.22;100596.00;5059914;28;57266;-73
2022/02/15 04:33:46;;;;;;;;;6.00;5.00;;;;;21.27;48.30;100595.00;5060295;28;45225;-73
2022/02/15 04:36:12;;;;;;;;;4.75;4.25;;;;;21.31;48.24;100604.59;5043275;28;46488;-73
2022/02/15 04:38:37;;;;;;;;;5.50;5.00;;;;;21.33;48.45;100606.25;5060195;28;45349;-72
2022/02/15 04:41:03;;;;;;;;;5.50;5.50;;;;;21.38;48.16;100608.75;5042257;28;45354;-72
2022/02/15 04:43:28;;;;;;;;;6.50;6.00;;;;;21.39;48.36;100615.78;5042397;28;57388;-73
2022/02/15 04:45:53;;;;;;;;;4.50;4.00;;;;;21.42;48.10;100621.84;5043496;28;45277;-72
2022/02/15 04:48:19;;;;;;;;;3.25;3.25;;;;;21.47;48.26;100626.13;5043206;28;45406;-72
2022/02/15 04:50:44;;;;;;;;;6.00;4.50;;;;;21.49;48.34;100629.59;5059928;28;45209;-72
2022/02/15 04:53:10;;;;;;;;;7.50;6.50;;;;;21.49;48.26;100625.16;5042984;28;45231;-72
2022/02/15 04:55:35;;;;;;;;;5.00;5.00;;;;;21.51;48.55;100628.59;5059981;28;45407;-72
2022/02/15 04:58:00;;;;;;;;;6.00;4.00;;;;;21.53;48.09;100636.50;5043116;28;45508;-72
2022/02/15 05:00:26;;;;;;;;;6.75;4.00;;;;;21.55;48.61;100642.66;5059782;28;45779;-72
2022/02/15 05:02:51;;;;;;;;;4.00;4.00;;;;;21.56;48.47;100641.72;5042429;28;56308;-72
2022/02/15 05:05:17;;;;;;;;;5.00;5.00;;;;;21.56;48.39;100645.25;5026822;28;45323;-72
2022/02/15 05:07:42;;;;;;;;;5.00;4.00;;;;;21.58;48.46;100650.47;5059114;28;65635;-72
2022/02/15 05:10:09;;;;;;;;;4.00;4.00;;;;;21.59;48.28;100650.41;5043305;28;61041;-72
2022/02/15 05:12:36;;;;;;;;;4.75;3.50;;;;;21.59;48.22;100653.06;5043994;28;45394;-73
2022/02/15 05:15:02;;;;;;;;;4.00;3.00;;;;;21.61;48.14;100645.03;5059982;28;45332;-72
2022/02/15 05:17:27;;;;;;;;;5.00;4.00;;;;;21.62;48.15;100644.13;5042682;28;45418;-72
2022/02/15 05:19:53;;;;;;;;;5.00;4.00;;;;;21.62;48.54;100658.25;5042687;28;47198;-72
2022/02/15 05:22:18;;;;;;;;;3.00;3.00;;;;;21.64;48.71;100650.25;5042457;28;46277;-72
2022/02/15 05:24:44;;;;;;;;;4.75;3.75;;;;;21.64;48.75;100651.13;5042641;28;45356;-72
2022/02/15 05:27:09;;;;;;;;;9.00;3.25;;;;;21.66;48.51;100649.28;5058948;28;55626;-72
2022/02/15 05:29:34;;;;;;;;;3.00;3.00;;;;;21.67;48.31;100645.69;5042527;28;46275;-72
2022/02/15 05:32:00;;;;;;;;;4.00;4.00;;;;;21.69;48.44;100645.63;5042490;28;45276;-72
2022/02/15 05:34:25;;;;;;;;;4.00;4.00;;;;;21.70;48.22;100650.00;5060928;28;45327;-72
2022/02/15 05:36:51;;;;;;;;;6.00;3.75;;;;;21.69;48.51;100646.50;5060257;28;49089;-72
2022/02/15 05:39:17;;;;;;;;;3.75;3.75;;;;;21.71;48.45;100659.69;5075789;28;47153;-72
2022/02/15 05:41:42;;;;;;;;;2.50;2.50;;;;;21.72;48.42;100656.16;5076021;28;45530;-72
2022/02/15 05:44:08;;;;;;;;;5.25;3.25;;;;;21.73;48.10;100656.09;5042293;28;45422;-72
2022/02/15 05:46:33;;;;;;;;;4.00;3.00;;;;;21.75;48.23;100661.34;5059257;28;45360;-72
2022/02/15 05:48:58;;;;;;;;;5.25;4.00;;;;;21.76;48.17;100662.19;5041961;28;45874;-69
2022/02/15 05:51:24;;;;;;;;;5.00;4.00;;;;;21.77;49.14;100655.97;5058513;28;56602;-66
2022/02/15 05:53:50;;;;;;;;;3.50;3.50;;;;;21.81;49.21;100658.47;5058586;28;45327;-67
2022/02/15 05:56:15;;;;;;;;;4.00;3.00;;;;;21.82;48.96;100649.56;5042064;28;45335;-71
2022/02/15 05:58:41;;;;;;;;;5.00;5.00;;;;;21.84;49.45;100660.13;5042153;28;45343;-72
2022/02/15 06:01:06;;;;;;;;;3.00;2.75;;;;;21.88;50.16;100664.38;5042013;28;47842;-71
2022/02/15 06:06:16;;;;;;;;;2.50;2.50;;;;;21.95;50.38;100656.09;5044852;28;45304;-73
2022/02/15 06:08:41;;;;;;;;;6.25;3.75;;;;;21.99;50.72;100651.56;5058767;28;45303;-72
2022/02/15 06:11:07;;;;;;;;;6.00;6.00;;;;;22.03;51.45;100658.47;5024934;28;45565;-72
2022/02/15 06:13:32;;;;;;;;;7.25;4.25;;;;;22.11;52.01;100674.16;5041613;28;47297;-69
2022/02/15 06:15:58;;;;;;;;;5.25;3.00;;;;;22.15;52.01;100673.09;5041130;28;60982;-68
2022/02/15 06:18:23;;;;;;;;;3.75;3.75;;;;;22.19;51.61;100672.91;5041017;28;64106;-71
2022/02/15 06:20:49;;;;;;;;;3.75;3.75;;;;;22.24;51.14;100681.59;5024461;28;60157;-74
2022/02/15 06:23:15;;;;;;;;;4.50;4.50;;;;;22.27;51.31;100673.47;5041906;28;45738;-71
2022/02/15 06:25:40;;;;;;;;;4.75;4.00;;;;;22.33;50.76;100682.13;5041728;28;45398;-71
2022/02/15 06:28:05;;;;;;;;;4.00;4.00;;;;;22.33;50.68;100685.69;5041688;28;45545;-72
2022/02/15 06:30:31;;;;;;;;;4.00;4.00;;;;;22.34;50.03;100691.84;5058112;28;46040;-73
2022/02/15 06:32:56;;;;;;;;;4.50;4.00;;;;;22.32;50.65;100694.56;5041689;28;45434;-72
2022/02/15 06:35:22;;;;;;;;;4.25;3.75;;;;;22.32;50.44;100693.69;5024629;28;47066;-72
2022/02/15 06:37:48;;;;;;;;;6.50;5.25;;;;;22.32;50.50;100705.19;5057972;28;52627;-72
2022/02/15 06:40:14;;;;;;;;;4.50;4.50;;;;;22.32;50.31;100707.84;5058092;28;45345;-71
2022/02/15 06:42:40;;;;;;;;;3.00;3.00;;;;;22.30;49.89;100704.38;5041726;28;45457;-71
2022/02/15 06:45:06;;;;;;;;;4.50;4.50;;;;;22.31;50.06;100699.94;5041297;28;45387;-71
2022/02/15 06:47:31;;;;;;;;;4.00;3.75;;;;;22.29;50.09;100702.66;5058065;28;46082;-71
2022/02/15 06:49:57;;;;;;;;;3.50;3.25;;;;;22.28;49.90;100711.56;5057231;28;63200;-71
2022/02/15 06:52:22;;;;;;;;;5.00;4.00;;;;;22.26;49.83;100714.28;5041136;28;51256;-71
2022/02/15 06:54:47;;;;;;;;;3.25;3.25;;;;;22.27;50.13;100724.00;5041172;28;45361;-71
2022/02/15 06:57:13;;;;;;;;;6.50;3.00;;;;;22.27;50.06;100725.78;5041118;28;46470;-71
2022/02/15 06:59:38;;;;;;;;;4.50;4.50;;;;;22.28;50.02;100723.06;5040474;28;62786;-71
2022/02/15 07:02:04;;;;;;;;;6.00;4.50;;;;;22.28;49.57;100722.22;5041344;28;45241;-74
2022/02/15 07:04:29;;;;;;;;;4.50;4.00;;;;;22.26;49.85;100722.28;5041460;28;48380;-71
2022/02/15 07:06:55;;;;;;;;;4.25;3.00;;;;;22.27;49.57;100733.78;5044849;28;45334;-70
2022/02/15 07:09:22;;;;;;;;;5.75;5.00;;;;;22.27;49.40;100741.75;5061316;28;45321;-72
2022/02/15 07:11:47;;;;;;;;;9.25;6.00;;;;;22.26;48.85;100735.56;5044832;28;45335;-72
2022/02/15 07:14:12;;;;;;;;;7.00;5.25;;;;;22.26;48.41;100746.19;5061161;28;45467;-72
2022/02/15 07:16:38;;;;;;;;;8.25;7.00;;;;;22.25;48.83;100743.59;5043731;28;61661;-70
2022/02/15 07:19:04;;;;;;;;;6.25;4.75;;;;;22.25;48.65;100746.25;5061315;28;45391;-71
2022/02/15 07:21:31;;;;;;;;;8.00;4.25;;;;;22.26;48.58;100748.00;5027718;28;47617;-70
2022/02/15 07:23:57;;;;;;;;;5.25;4.75;;;;;22.25;48.10;100746.25;5028454;28;45306;-71
2022/02/15 07:26:23;;;;;;;;;6.00;4.00;;;;;22.27;48.22;100755.03;5047603;28;45430;-71
2022/02/15 07:28:48;;;;;;;;;6.00;4.00;;;;;22.24;48.02;100757.78;5044277;28;45166;-71
2022/02/15 07:31:14;;;;;;;;;5.00;4.00;;;;;22.24;48.15;100756.03;5043909;28;57074;-71
2022/02/15 07:33:39;;;;;;;;;4.50;2.75;;;;;22.23;48.19;100764.91;5061236;28;45311;-69
2022/02/15 07:36:05;;;;;;;;;6.50;4.25;;;;;22.22;48.09;100757.84;5062090;28;46218;-71
2022/02/15 07:38:30;;;;;;;;;4.25;4.00;;;;;22.24;47.49;100771.09;5078090;28;45429;-70
2022/02/15 07:40:56;;;;;;;;;4.00;3.00;;;;;22.23;47.92;100762.25;5043982;28;46509;-70
2022/02/15 07:43:21;;;;;;;;;4.50;3.00;;;;;22.22;47.43;100765.84;5060816;28;45465;-70
2022/02/15 07:45:47;;;;;;;;;6.00;4.50;;;;;22.21;47.42;100766.75;5060183;28;60257;-70
2022/02/15 07:48:12;;;;;;;;;6.25;4.00;;;;;22.20;47.35;100770.34;5043822;28;45245;-70
2022/02/15 07:50:37;;;;;;;;;5.00;4.00;;;;;22.20;47.97;100780.13;5059098;28;45425;-69
2022/02/15 07:53:03;;;;;;;;;5.25;4.00;;;;;22.19;47.90;100773.06;5043906;28;45550;-69
2022/02/15 07:55:28;;;;;;;;;10.50;6.00;;;;;22.18;47.83;100774.00;5043687;28;47379;-71
2022/02/15 07:57:54;;;;;;;;;4.25;4.25;;;;;22.16;47.82;100774.06;5060610;28;45473;-70
2022/02/15 08:00:21;;;;;;;;;4.75;4.75;;;;;22.16;47.67;100781.19;5061728;28;45780;-71
2022/02/15 08:02:47;;;;;;;;;7.00;5.50;;;;;22.16;48.02;100778.53;5060815;28;45275;-71
2022/02/15 08:05:12;;;;;;;;;6.00;4.25;;;;;22.14;47.74;100778.56;5043394;28;45557;-70
2022/02/15 08:07:38;;;;;;;;;4.00;3.00;;;;;22.16;47.44;100791.81;5043644;28;45301;-70
2022/02/15 08:10:04;;;;;;;;;7.00;4.00;;;;;22.14;47.32;100788.31;5043449;28;45395;-70
2022/02/15 08:12:30;;;;;;;;;4.50;3.25;;;;;22.12;47.14;100807.00;5043894;28;45342;-70
2022/02/15 08:14:56;;;;;;;;;4.75;3.50;;;;;22.14;47.02;100812.25;5043313;28;45579;-70
2022/02/15 08:17:22;;;;;;;;;6.00;4.75;;;;;22.13;47.06;100805.19;5042879;28;45462;-70
2022/02/15 08:19:48;;;;;;;;;4.75;3.00;;;;;22.13;47.43;100810.50;5043557;28;45365;-71
2022/02/15 08:22:13;;;;;;;;;6.00;4.00;;;;;22.14;47.04;100814.91;5060102;28;45604;-71
2022/02/15 08:24:39;;;;;;;;;6.00;4.00;;;;;22.12;47.31;100804.34;5059828;28;47081;-70
2022/02/15 08:27:04;;;;;;;;;6.75;6.00;;;;;22.13;47.18;100810.50;5043350;28;45335;-71
2022/02/15 08:29:31;;;;;;;;;4.00;4.00;;;;;22.14;47.19;100820.22;5060011;28;45535;-71
2022/02/15 08:31:56;;;;;;;;;5.75;3.75;;;;;22.13;46.68;100819.34;5042934;28;45359;-70
2022/02/15 08:34:22;;;;;;;;;4.00;2.25;;;;;22.14;46.85;100814.91;5042726;28;49511;-72
2022/02/15 08:36:47;;;;;;;;;4.00;3.00;;;;;22.12;46.60;100824.72;5043204;28;45219;-71
2022/02/15 08:39:15;;;;;;;;;4.50;3.00;;;;;22.12;46.55;100830.91;5073374;28;45319;-71
2022/02/15 08:41:41;;;;;;;;;4.00;3.50;;;;;22.12;46.18;100840.69;5043158;28;45338;-70
2022/02/15 08:44:06;;;;;;;;;6.00;3.50;;;;;22.11;46.43;100834.50;5042636;28;47188;-70
2022/02/15 08:46:32;;;;;;;;;3.00;3.00;;;;;22.12;46.38;100824.72;5026096;28;45341;-70
2022/02/15 08:48:57;;;;;;;;;5.00;5.00;;;;;22.14;46.17;100833.50;5042283;28;57401;-70
2022/02/15 08:51:22;;;;;;;;;5.25;3.00;;;;;22.16;46.03;100829.91;5042894;28;45693;-71
2022/02/15 08:53:49;;;;;;;;;6.00;3.25;;;;;22.19;45.55;100831.56;5042187;28;53346;-71
2022/02/15 08:56:15;;;;;;;;;6.00;3.00;;;;;22.20;45.40;100822.66;5042843;28;45342;-71
2022/02/15 08:58:41;;;;;;;;;3.25;3.00;;;;;22.23;45.55;100828.72;5026199;28;45287;-71
2022/02/15 09:01:07;;;;;;;;;3.00;3.00;;;;;22.24;45.37;100825.16;5059862;28;45273;-71
2022/02/15 09:03:32;;;;;;;;;3.25;3.25;;;;;22.26;45.42;100825.09;5042120;28;47947;-70
2022/02/15 09:06:00;;;;;;;;;5.50;3.00;;;;;22.28;44.93;100831.22;5042271;28;57568;-70
2022/02/15 09:08:25;;;;;;;;;4.00;2.50;;;;;22.27;45.05;100810.88;5042873;28;45442;-70
2022/02/15 09:10:50;;;;;;;;;2.00;1.25;;;;;22.30;44.99;100808.09;5042528;28;45256;-70
2022/02/15 09:13:16;;;;;;;;;3.25;2.00;;;;;22.31;44.59;100799.19;5041481;28;59522;-70
2022/02/15 09:15:41;;;;;;;;;4.50;3.00;;;;;22.32;44.78;100789.41;5042416;28;45809;-70
2022/02/15 09:18:07;;;;;;;;;3.00;1.75;;;;;22.34;44.31;100788.44;5042301;28;45444;-71
2022/02/15 09:20:32;;;;;;;;;3.00;3.00;;;;;22.37;44.62;100788.31;5025876;28;45397;-71
2022/02/15 09:22:58;;;;;;;;;2.00;2.00;;;;;22.40;44.05;100798.81;5042306;28;47552;-69
2022/02/15 09:25:23;;;;;;;;;3.50;2.50;;;;;22.41;44.12;100797.91;5060526;28;45356;-70
2022/02/15 09:27:49;;;;;;;;;3.50;3.00;;;;;22.45;43.97;100807.50;5041589;28;45409;-68
2022/02/15 09:30:14;;;;;;;;;5.25;3.00;;;;;22.47;44.43;100816.28;5059083;28;45476;-69
2022/02/15 09:32:39;;;;;;;;;3.00;3.00;;;;;22.49;44.39;100816.22;5041179;28;70119;-69
2022/02/15 09:35:05;;;;;;;;;5.00;2.75;;;;;22.49;44.11;100819.75;5058629;28;45378;-70
2022/02/15 09:37:31;;;;;;;;;3.25;2.50;;;;;22.53;44.21;100821.38;5041569;28;46448;-70
2022/02/15 09:39:56;;;;;;;;;4.75;4.00;;;;;22.54;43.77;100819.59;5042103;28;45636;-69
2022/02/15 09:42:22;;;;;;;;;3.00;1.50;;;;;22.55;43.86;100822.19;5041159;28;66078;-68
2022/02/15 09:44:48;;;;;;;;;2.00;2.00;;;;;22.57;43.37;100819.44;5041155;28;45669;-69
2022/02/15 09:47:15;;;;;;;;;1.75;1.75;;;;;22.59;43.20;100822.94;5041369;28;61891;-69
2022/02/15 09:49:50;;;;;;;;;6.50;2.75;;;;;22.61;43.75;100826.41;5025675;28;45608;-70
2022/02/15 09:52:17;;;;;;;;;4.00;2.75;;;;;22.62;43.55;100816.63;5043239;28;45559;-70
2022/02/15 09:54:43;;;;;;;;;3.00;3.00;;;;;22.63;43.59;100810.38;5041843;28;45474;-69
2022/02/15 09:57:09;;;;;;;;;4.00;2.00;;;;;22.63;43.72;100807.72;5042248;28;45462;-69
2022/02/15 09:59:35;;;;;;;;;2.50;2.00;;;;;22.66;43.16;100815.56;5041774;28;45609;-69
2022/02/15 10:02:05;;;;;;;;;3.25;2.25;;;;;22.67;43.20;100814.63;5059960;28;45379;-69
2022/02/15 10:04:34;;;;;;;;;3.25;2.25;;;;;22.68;42.89;100824.38;5041530;28;45771;-69
2022/02/15 10:07:04;;;;;;;;;2.00;2.00;;;;;22.71;43.36;100829.56;5042666;28;45468;-69
2022/02/15 10:09:29;;;;;;;;;4.50;1.75;;;;;22.73;42.69;100835.69;5041724;28;45504;-67
2022/02/15 10:12:03;;;;;;;;;4.25;3.00;;;;;22.73;42.81;100827.69;5041638;28;47131;-69
2022/02/15 10:14:28;;;;;;;;;4.50;4.00;;;;;22.73;43.05;100828.56;5024529;28;45298;-69
2022/02/15 10:16:54;;;;;;;;;5.00;2.75;;;;;22.75;42.82;100831.16;5041724;28;45626;-69
2022/02/15 10:19:24;;;;;;;;;2.75;2.00;;;;;22.76;42.86;100830.22;5041585;28;45576;-69
2022/02/15 10:21:54;;;;;;;;;3.00;3.00;;;;;22.73;42.91;100827.69;5041786;28;45453;-69
2022/02/15 10:24:19;;;;;;;;;2.00;2.00;;;;;22.68;42.67;100825.25;5041692;28;45302;-69
2022/02/15 10:27:04;;;;;;;;;2.50;1.50;;;;;22.68;42.79;100835.88;5041266;28;45379;-69
2022/02/15 10:29:31;;;;;;;;;2.75;1.75;;;;;22.66;42.82;100839.50;5059285;28;45236;-70
2022/02/15 10:32:00;;;;;;;;;3.00;2.00;;;;;22.63;42.57;100850.28;5059665;28;46450;-70
2022/02/15 10:34:26;;;;;;;;;3.75;2.00;;;;;22.61;42.56;100849.47;5058752;28;45374;-70
2022/02/15 10:37:03;;;;;;;;;4.00;2.50;;;;;22.58;42.29;100843.31;5041340;28;45405;-70
2022/02/15 10:39:50;;;;;;;;;2.75;2.00;;;;;22.58;42.60;100845.13;5088593;27;45493;-68
2022/02/15 10:42:23;;;;;;;;;5.00;2.00;;;;;22.56;42.35;100839.88;5055304;28;45486;-69
2022/02/15 10:44:57;;;;;;;;;3.00;3.00;;;;;22.55;42.22;100838.13;5025251;28;45836;-69
2022/02/15 10:47:23;;;;;;;;;5.00;2.50;;;;;22.56;42.32;100826.56;5041129;28;45355;-69
2022/02/15 10:49:48;;;;;;;;;2.25;2.25;;;;;22.57;42.37;100822.97;5057979;28;45496;-70
2022/02/15 10:52:14;;;;;;;;;6.50;4.00;;;;;22.61;42.27;100813.09;5024433;28;47285;-70
2022/02/15 10:54:40;;;;;;;;;2.00;1.50;;;;;22.66;42.01;100811.09;5057877;28;45268;-70
2022/02/15 10:57:10;;;;;;;;;3.25;2.00;;;;;22.70;42.24;100812.72;5057831;28;45624;-71
2022/02/15 10:59:35;;;;;;;;;2.25;2.00;;;;;22.71;42.17;100797.63;5057386;28;45441;-70
2022/02/15 11:02:01;;;;;;;;;1.75;1.00;;;;;22.72;41.90;100794.91;5040621;28;64797;-70
2022/02/15 11:04:29;;;;;;;;;5.75;3.00;;;;;22.71;41.88;100806.47;5041127;28;45201;-70
2022/02/15 11:06:54;;;;;;;;;5.25;3.00;;;;;22.72;41.71;100812.66;5027900;28;45351;-70
2022/02/15 11:09:20;;;;;;;;;4.25;1.75;;;;;22.68;42.26;100800.44;5040488;28;57313;-71
2022/02/15 11:12:16;;;;;;;;;2.75;2.25;;;;;22.68;41.99;100793.31;5041163;28;47614;-70
2022/02/15 11:14:41;;;;;;;;;5.75;3.50;;;;;22.69;41.65;100778.22;5041796;28;45363;-70
2022/02/15 11:17:15;;;;;;;;;5.00;3.00;;;;;22.67;40.91;100774.72;5023999;28;47355;-71
2022/02/15 11:19:41;;;;;;;;;1.00;1.00;;;;;22.65;39.73;100782.78;5024756;28;45414;-71
2022/02/15 11:22:16;;;;;;;;;2.50;1.50;;;;;22.62;39.54;100782.03;5024626;28;47608;-70
2022/02/15 11:24:42;;;;;;;;;3.75;3.75;;;;;22.59;39.58;100772.41;5023918;28;45452;-71
2022/02/15 11:27:19;;;;;;;;;4.50;1.25;;;;;22.59;38.98;100777.72;5023583;28;49607;-71